KENV/ENV METAR and TAF weather

Enter ICAO airport designator
Station Type Date Time Source
KENV METAR 2020/03/28 07:56 UTC NOAA

KENV 280756Z AUTO 00000KT 10SM BKN085 02/M05 A3003 RMK AO2 SLP180 T00221050 FZRANO


Station Type Date Time Source
KENV Decoded METAR 2020/03/28 07:56 UTC NOAA

Wendover / Air Force Auxillary Field, UT, United States (KENV) 40-44N 114-02W 1292M
Mar 28, 2020 - 03:56 AM EDT / 2020.03.28 0756 UTC
Wind: Calm:0
Visibility: 10 mile(s):0
Sky conditions: mostly cloudy
Temperature: 36.0 F (2.2 C)
Dew Point: 23.0 F (-5.0 C)
Relative Humidity: 58%
Pressure (altimeter): 30.03 in. Hg (1016 hPa)
ob: KENV 280756Z AUTO 00000KT 10SM BKN085 02/M05 A3003 RMK AO2 SLP180 T00221050 FZRANO
cycle: 8

Station Type Date Time Source
KENV TAF 2020/03/28 06:33 UTC NOAA

TAF KENV 280530Z 2806/2906 31006KT P6SM SCT060 BKN100
FM281800 12006KT P6SM BKN080
FM290300 VRB04KT P6SM SCT080 SCT200

Example: see airport list